sensor_id;sensor_type;location;lat;lon;timestamp;pressure;altitude;pressure_sealevel;temperature;humidity
60371;BME280;48550;40.588;49.684;2023-02-21T00:01:56;100915.19;;;6.77;100.00
60371;BME280;48550;40.588;49.684;2023-02-21T00:04:40;100936.53;;;6.77;100.00
60371;BME280;48550;40.588;49.684;2023-02-21T00:07:25;100967.50;;;6.71;100.00
60371;BME280;48550;40.588;49.684;2023-02-21T00:10:12;100954.72;;;6.60;100.00
60371;BME280;48550;40.588;49.684;2023-02-21T00:12:56;100950.03;;;6.68;100.00
60371;BME280;48550;40.588;49.684;2023-02-21T00:15:41;100962.94;;;6.65;100.00
60371;BME280;48550;40.588;49.684;2023-02-21T00:18:25;100948.16;;;6.62;100.00
60371;BME280;48550;40.588;49.684;2023-02-21T00:21:09;100945.91;;;6.59;100.00
60371;BME280;48550;40.588;49.684;2023-02-21T00:23:54;100965.16;;;6.55;100.00
60371;BME280;48550;40.588;49.684;2023-02-21T00:26:38;100945.06;;;6.52;100.00
60371;BME280;48550;40.588;49.684;2023-02-21T00:29:23;100960.88;;;6.60;100.00
60371;BME280;48550;40.588;49.684;2023-02-21T00:32:07;100973.19;;;6.61;100.00
60371;BME280;48550;40.588;49.684;2023-02-21T00:34:51;100976.47;;;6.57;100.00
60371;BME280;48550;40.588;49.684;2023-02-21T00:37:35;100984.03;;;6.53;100.00
60371;BME280;48550;40.588;49.684;2023-02-21T00:40:20;100992.44;;;6.50;100.00
60371;BME280;48550;40.588;49.684;2023-02-21T00:43:03;101006.75;;;6.43;100.00
60371;BME280;48550;40.588;49.684;2023-02-21T00:45:48;101016.41;;;6.44;100.00
60371;BME280;48550;40.588;49.684;2023-02-21T00:48:32;101019.91;;;6.51;100.00
60371;BME280;48550;40.588;49.684;2023-02-21T00:51:16;101016.19;;;6.45;100.00
60371;BME280;48550;40.588;49.684;2023-02-21T00:54:00;101019.06;;;6.44;100.00
60371;BME280;48550;40.588;49.684;2023-02-21T00:56:44;101027.88;;;6.44;100.00
60371;BME280;48550;40.588;49.684;2023-02-21T00:59:28;101032.44;;;6.50;100.00
60371;BME280;48550;40.588;49.684;2023-02-21T01:02:12;101042.22;;;6.36;100.00
60371;BME280;48550;40.588;49.684;2023-02-21T01:04:56;101050.41;;;6.35;100.00
60371;BME280;48550;40.588;49.684;2023-02-21T01:07:40;101028.84;;;6.30;100.00
60371;BME280;48550;40.588;49.684;2023-02-21T01:10:24;101052.41;;;6.26;100.00
60371;BME280;48550;40.588;49.684;2023-02-21T01:13:09;101081.28;;;6.23;100.00
60371;BME280;48550;40.588;49.684;2023-02-21T01:15:54;101079.44;;;6.23;100.00
60371;BME280;48550;40.588;49.684;2023-02-21T01:18:38;101089.75;;;6.33;100.00
60371;BME280;48550;40.588;49.684;2023-02-21T01:21:22;101087.44;;;6.23;100.00
60371;BME280;48550;40.588;49.684;2023-02-21T01:24:07;101086.97;;;6.13;100.00
60371;BME280;48550;40.588;49.684;2023-02-21T01:26:52;101111.16;;;6.12;100.00
60371;BME280;48550;40.588;49.684;2023-02-21T01:29:36;101117.31;;;6.12;100.00
60371;BME280;48550;40.588;49.684;2023-02-21T01:32:20;101111.69;;;6.00;100.00
60371;BME280;48550;40.588;49.684;2023-02-21T01:35:04;101104.06;;;5.97;100.00
60371;BME280;48550;40.588;49.684;2023-02-21T01:37:49;101140.06;;;5.93;100.00
60371;BME280;48550;40.588;49.684;2023-02-21T01:40:32;101138.34;;;5.86;100.00
60371;BME280;48550;40.588;49.684;2023-02-21T01:43:21;101150.66;;;5.87;100.00
60371;BME280;48550;40.588;49.684;2023-02-21T01:46:10;101135.47;;;5.87;100.00
60371;BME280;48550;40.588;49.684;2023-02-21T01:48:56;101150.44;;;5.88;100.00
60371;BME280;48550;40.588;49.684;2023-02-21T01:51:41;101155.03;;;5.73;100.00
60371;BME280;48550;40.588;49.684;2023-02-21T01:54:29;101168.09;;;5.68;100.00
60371;BME280;48550;40.588;49.684;2023-02-21T01:57:15;101168.13;;;5.53;100.00
60371;BME280;48550;40.588;49.684;2023-02-21T02:00:03;101178.34;;;5.50;100.00
60371;BME280;48550;40.588;49.684;2023-02-21T02:02:50;101173.84;;;5.50;100.00
60371;BME280;48550;40.588;49.684;2023-02-21T02:05:38;101188.16;;;5.49;100.00
60371;BME280;48550;40.588;49.684;2023-02-21T02:08:27;101201.41;;;5.42;100.00
60371;BME280;48550;40.588;49.684;2023-02-21T02:14:44;101230.44;;;5.23;100.00
60371;BME280;48550;40.588;49.684;2023-02-21T02:26:47;101260.31;;;4.95;100.00
60371;BME280;48550;40.588;49.684;2023-02-21T02:29:35;101265.19;;;4.92;100.00
60371;BME280;48550;40.588;49.684;2023-02-21T02:34:57;101289.56;;;4.81;100.00
60371;BME280;48550;40.588;49.684;2023-02-21T02:40:09;101311.47;;;4.83;100.00
60371;BME280;48550;40.588;49.684;2023-02-21T02:42:57;101334.41;;;4.84;100.00
60371;BME280;48550;40.588;49.684;2023-02-21T02:48:36;101325.50;;;4.76;100.00
60371;BME280;48550;40.588;49.684;2023-02-21T02:51:08;101323.03;;;4.75;100.00
60371;BME280;48550;40.588;49.684;2023-02-21T02:53:35;101334.31;;;4.77;100.00
60371;BME280;48550;40.588;49.684;2023-02-21T02:56:07;101336.38;;;4.67;100.00
60371;BME280;48550;40.588;49.684;2023-02-21T02:59:01;101326.09;;;4.64;100.00
60371;BME280;48550;40.588;49.684;2023-02-21T03:10:03;101326.53;;;4.53;100.00
60371;BME280;48550;40.588;49.684;2023-02-21T03:13:03;101359.09;;;4.55;100.00
60371;BME280;48550;40.588;49.684;2023-02-21T03:18:29;101353.66;;;4.48;100.00
60371;BME280;48550;40.588;49.684;2023-02-21T03:20:57;101368.25;;;4.52;100.00
60371;BME280;48550;40.588;49.684;2023-02-21T03:23:27;101379.34;;;4.56;100.00
60371;BME280;48550;40.588;49.684;2023-02-21T03:26:01;101378.69;;;4.54;100.00
60371;BME280;48550;40.588;49.684;2023-02-21T03:28:29;101376.03;;;4.54;100.00
60371;BME280;48550;40.588;49.684;2023-02-21T03:30:56;101373.56;;;4.52;100.00
60371;BME280;48550;40.588;49.684;2023-02-21T03:33:24;101378.81;;;4.60;100.00
60371;BME280;48550;40.588;49.684;2023-02-21T03:35:50;101369.53;;;4.56;100.00
60371;BME280;48550;40.588;49.684;2023-02-21T03:38:17;101396.13;;;4.56;100.00
60371;BME280;48550;40.588;49.684;2023-02-21T03:40:42;101402.13;;;4.50;100.00
60371;BME280;48550;40.588;49.684;2023-02-21T03:43:08;101420.53;;;4.60;100.00
60371;BME280;48550;40.588;49.684;2023-02-21T03:45:35;101428.44;;;4.68;100.00
60371;BME280;48550;40.588;49.684;2023-02-21T03:48:01;101424.31;;;4.65;100.00
60371;BME280;48550;40.588;49.684;2023-02-21T03:50:27;101415.91;;;4.54;100.00
60371;BME280;48550;40.588;49.684;2023-02-21T03:52:53;101418.75;;;4.52;100.00
60371;BME280;48550;40.588;49.684;2023-02-21T03:55:19;101419.94;;;4.41;100.00
60371;BME280;48550;40.588;49.684;2023-02-21T03:57:45;101420.47;;;4.37;100.00
60371;BME280;48550;40.588;49.684;2023-02-21T04:00:12;101435.41;;;4.38;100.00
60371;BME280;48550;40.588;49.684;2023-02-21T04:02:38;101446.84;;;4.46;100.00
60371;BME280;48550;40.588;49.684;2023-02-21T04:05:04;101443.19;;;4.47;100.00
60371;BME280;48550;40.588;49.684;2023-02-21T04:07:29;101437.53;;;4.51;100.00
60371;BME280;48550;40.588;49.684;2023-02-21T04:09:55;101418.47;;;4.39;100.00
60371;BME280;48550;40.588;49.684;2023-02-21T04:12:21;101430.91;;;4.46;100.00
60371;BME280;48550;40.588;49.684;2023-02-21T04:14:47;101449.03;;;4.35;100.00
60371;BME280;48550;40.588;49.684;2023-02-21T04:17:13;101454.97;;;4.45;100.00
60371;BME280;48550;40.588;49.684;2023-02-21T04:19:40;101451.34;;;4.46;100.00
60371;BME280;48550;40.588;49.684;2023-02-21T04:22:06;101462.63;;;4.40;100.00
60371;BME280;48550;40.588;49.684;2023-02-21T04:24:31;101467.13;;;4.39;100.00
60371;BME280;48550;40.588;49.684;2023-02-21T04:26:57;101483.56;;;4.43;100.00
60371;BME280;48550;40.588;49.684;2023-02-21T04:29:23;101482.72;;;4.51;100.00
60371;BME280;48550;40.588;49.684;2023-02-21T04:31:49;101491.03;;;4.47;100.00
60371;BME280;48550;40.588;49.684;2023-02-21T04:34:16;101480.25;;;4.41;100.00
60371;BME280;48550;40.588;49.684;2023-02-21T04:36:41;101482.56;;;4.44;100.00
60371;BME280;48550;40.588;49.684;2023-02-21T04:39:07;101482.59;;;4.36;100.00
60371;BME280;48550;40.588;49.684;2023-02-21T04:41:33;101493.88;;;4.46;100.00
60371;BME280;48550;40.588;49.684;2023-02-21T04:43:59;101501.50;;;4.41;100.00
60371;BME280;48550;40.588;49.684;2023-02-21T04:46:25;101503.47;;;4.55;100.00
60371;BME280;48550;40.588;49.684;2023-02-21T04:48:51;101504.66;;;4.44;100.00
60371;BME280;48550;40.588;49.684;2023-02-21T04:51:19;101502.16;;;4.43;100.00
60371;BME280;48550;40.588;49.684;2023-02-21T04:53:47;101515.31;;;4.36;100.00
60371;BME280;48550;40.588;49.684;2023-02-21T04:56:12;101536.75;;;4.35;100.00
60371;BME280;48550;40.588;49.684;2023-02-21T04:58:38;101527.16;;;4.26;100.00
60371;BME280;48550;40.588;49.684;2023-02-21T05:01:05;101529.53;;;4.04;100.00
60371;BME280;48550;40.588;49.684;2023-02-21T05:03:31;101546.09;;;4.23;100.00
60371;BME280;48550;40.588;49.684;2023-02-21T05:05:57;101548.41;;;4.26;100.00
60371;BME280;48550;40.588;49.684;2023-02-21T05:08:22;101567.28;;;4.39;100.00
60371;BME280;48550;40.588;49.684;2023-02-21T05:10:49;101570.75;;;4.56;100.00
60371;BME280;48550;40.588;49.684;2023-02-21T05:13:15;101572.09;;;4.52;100.00
60371;BME280;48550;40.588;49.684;2023-02-21T05:15:41;101568.16;;;4.78;100.00
60371;BME280;48550;40.588;49.684;2023-02-21T05:18:07;101574.59;;;5.15;100.00
60371;BME280;48550;40.588;49.684;2023-02-21T05:20:33;101577.44;;;5.14;100.00
60371;BME280;48550;40.588;49.684;2023-02-21T05:22:59;101572.97;;;5.37;100.00
60371;BME280;48550;40.588;49.684;2023-02-21T05:25:24;101572.44;;;5.41;100.00
60371;BME280;48550;40.588;49.684;2023-02-21T05:27:51;101560.13;;;4.87;100.00
60371;BME280;48550;40.588;49.684;2023-02-21T05:30:19;101564.56;;;4.63;100.00
60371;BME280;48550;40.588;49.684;2023-02-21T05:32:46;101579.13;;;4.75;100.00
60371;BME280;48550;40.588;49.684;2023-02-21T05:35:13;101563.81;;;4.46;100.00
60371;BME280;48550;40.588;49.684;2023-02-21T05:37:39;101582.25;;;4.48;100.00
60371;BME280;48550;40.588;49.684;2023-02-21T05:40:05;101590.53;;;4.53;100.00
60371;BME280;48550;40.588;49.684;2023-02-21T05:42:31;101593.56;;;4.26;100.00
60371;BME280;48550;40.588;49.684;2023-02-21T05:44:57;101595.41;;;4.25;100.00
60371;BME280;48550;40.588;49.684;2023-02-21T05:47:23;101602.19;;;4.36;100.00
60371;BME280;48550;40.588;49.684;2023-02-21T05:49:49;101607.53;;;4.28;100.00
60371;BME280;48550;40.588;49.684;2023-02-21T05:52:16;101580.91;;;4.52;100.00
60371;BME280;48550;40.588;49.684;2023-02-21T05:54:42;101583.91;;;4.88;100.00
60371;BME280;48550;40.588;49.684;2023-02-21T05:57:09;101591.75;;;4.82;100.00
60371;BME280;48550;40.588;49.684;2023-02-21T05:59:34;101592.94;;;4.71;100.00
60371;BME280;48550;40.588;49.684;2023-02-21T06:02:01;101610.78;;;4.62;100.00
60371;BME280;48550;40.588;49.684;2023-02-21T06:04:27;101615.06;;;4.71;100.00
60371;BME280;48550;40.588;49.684;2023-02-21T06:06:53;101608.56;;;4.74;100.00
60371;BME280;48550;40.588;49.684;2023-02-21T06:09:19;101605.75;;;4.67;100.00
60371;BME280;48550;40.588;49.684;2023-02-21T06:11:45;101599.38;;;4.85;100.00
60371;BME280;48550;40.588;49.684;2023-02-21T06:14:18;101591.03;;;5.19;99.29
60371;BME280;48550;40.588;49.684;2023-02-21T06:16:46;101599.72;;;5.13;97.48
60371;BME280;48550;40.588;49.684;2023-02-21T06:19:13;101614.19;;;5.10;97.64
60371;BME280;48550;40.588;49.684;2023-02-21T06:21:41;101616.75;;;5.34;97.08
60371;BME280;48550;40.588;49.684;2023-02-21T06:24:08;101612.91;;;5.06;96.17
60371;BME280;48550;40.588;49.684;2023-02-21T06:26:34;101606.34;;;4.86;95.80
60371;BME280;48550;40.588;49.684;2023-02-21T06:29:02;101616.28;;;4.92;94.08
60371;BME280;48550;40.588;49.684;2023-02-21T06:31:28;101607.72;;;4.73;92.71
60371;BME280;48550;40.588;49.684;2023-02-21T06:33:54;101611.81;;;4.92;89.90
60371;BME280;48550;40.588;49.684;2023-02-21T06:36:22;101603.28;;;4.97;89.73
60371;BME280;48550;40.588;49.684;2023-02-21T06:38:50;101606.44;;;5.00;89.03
60371;BME280;48550;40.588;49.684;2023-02-21T06:41:21;101599.63;;;4.98;87.68
60371;BME280;48550;40.588;49.684;2023-02-21T06:43:54;101590.47;;;4.69;88.94
60371;BME280;48550;40.588;49.684;2023-02-21T06:46:23;101572.03;;;4.68;88.28
60371;BME280;48550;40.588;49.684;2023-02-21T06:48:49;101607.44;;;4.99;86.79
60371;BME280;48550;40.588;49.684;2023-02-21T06:51:15;101603.47;;;4.56;88.15
60371;BME280;48550;40.588;49.684;2023-02-21T06:53:42;101598.94;;;4.73;87.83
60371;BME280;48550;40.588;49.684;2023-02-21T06:56:09;101595.81;;;4.61;86.26
60371;BME280;48550;40.588;49.684;2023-02-21T06:58:34;101589.56;;;4.46;85.70
60371;BME280;48550;40.588;49.684;2023-02-21T07:01:00;101605.09;;;4.65;85.35
60371;BME280;48550;40.588;49.684;2023-02-21T07:03:27;101605.13;;;4.57;84.71
60371;BME280;48550;40.588;49.684;2023-02-21T07:05:53;101610.84;;;4.30;86.06
60371;BME280;48550;40.588;49.684;2023-02-21T07:08:19;101606.66;;;4.52;86.04
60371;BME280;48550;40.588;49.684;2023-02-21T07:10:45;101609.34;;;4.27;86.24
60371;BME280;48550;40.588;49.684;2023-02-21T07:13:10;101607.34;;;4.29;87.58
60371;BME280;48550;40.588;49.684;2023-02-21T07:15:36;101610.66;;;4.31;86.73
60371;BME280;48550;40.588;49.684;2023-02-21T07:18:02;101611.66;;;4.30;87.74
60371;BME280;48550;40.588;49.684;2023-02-21T07:20:28;101608.53;;;4.19;85.67
60371;BME280;48550;40.588;49.684;2023-02-21T07:22:53;101620.81;;;4.28;86.81
60371;BME280;48550;40.588;49.684;2023-02-21T07:25:21;101610.97;;;4.44;86.34
60371;BME280;48550;40.588;49.684;2023-02-21T07:27:48;101614.31;;;4.46;86.17
60371;BME280;48550;40.588;49.684;2023-02-21T07:30:15;101627.91;;;4.52;85.58
60371;BME280;48550;40.588;49.684;2023-02-21T07:32:41;101628.09;;;4.50;84.71
60371;BME280;48550;40.588;49.684;2023-02-21T07:35:07;101612.81;;;4.52;84.01
60371;BME280;48550;40.588;49.684;2023-02-21T07:37:33;101615.13;;;4.39;83.75
60371;BME280;48550;40.588;49.684;2023-02-21T07:39:58;101617.69;;;4.79;82.79
60371;BME280;48550;40.588;49.684;2023-02-21T07:42:24;101606.38;;;4.77;80.36
60371;BME280;48550;40.588;49.684;2023-02-21T07:44:56;101604.09;;;4.66;81.94
60371;BME280;48550;40.588;49.684;2023-02-21T07:47:24;101603.16;;;4.90;80.23
60371;BME280;48550;40.588;49.684;2023-02-21T07:49:50;101607.63;;;5.29;78.62
60371;BME280;48550;40.588;49.684;2023-02-21T07:52:19;101606.34;;;4.86;79.97
60371;BME280;48550;40.588;49.684;2023-02-21T07:54:45;101612.72;;;5.38;78.11
60371;BME280;48550;40.588;49.684;2023-02-21T07:57:11;101606.25;;;5.02;77.74
60371;BME280;48550;40.588;49.684;2023-02-21T07:59:37;101598.88;;;5.12;77.04
60371;BME280;48550;40.588;49.684;2023-02-21T08:02:03;101594.97;;;5.00;76.29
60371;BME280;48550;40.588;49.684;2023-02-21T08:04:29;101592.97;;;5.33;76.04
60371;BME280;48550;40.588;49.684;2023-02-21T08:07:02;101585.75;;;5.41;74.97
60371;BME280;48550;40.588;49.684;2023-02-21T08:09:28;101592.50;;;5.52;74.03
60371;BME280;48550;40.588;49.684;2023-02-21T08:11:53;101594.56;;;5.65;73.96
60371;BME280;48550;40.588;49.684;2023-02-21T08:14:19;101586.53;;;5.88;72.28
60371;BME280;48550;40.588;49.684;2023-02-21T08:16:45;101586.84;;;5.70;73.22
60371;BME280;48550;40.588;49.684;2023-02-21T08:19:10;101596.56;;;5.63;72.56
60371;BME280;48550;40.588;49.684;2023-02-21T08:21:37;101583.94;;;5.80;72.94
60371;BME280;48550;40.588;49.684;2023-02-21T08:24:03;101588.00;;;5.30;73.03
60371;BME280;48550;40.588;49.684;2023-02-21T08:26:29;101587.47;;;5.57;72.09
60371;BME280;48550;40.588;49.684;2023-02-21T08:28:55;101588.34;;;5.27;73.59
60371;BME280;48550;40.588;49.684;2023-02-21T08:31:20;101582.53;;;5.69;72.43
60371;BME280;48550;40.588;49.684;2023-02-21T08:33:46;101566.84;;;5.97;71.49
60371;BME280;48550;40.588;49.684;2023-02-21T08:36:12;101580.81;;;5.99;70.38
60371;BME280;48550;40.588;49.684;2023-02-21T08:38:38;101570.91;;;5.85;70.07
60371;BME280;48550;40.588;49.684;2023-02-21T08:41:04;101569.28;;;5.61;72.00
60371;BME280;48550;40.588;49.684;2023-02-21T08:43:31;101575.69;;;5.52;71.40
60371;BME280;48550;40.588;49.684;2023-02-21T08:45:57;101579.25;;;5.44;72.70
60371;BME280;48550;40.588;49.684;2023-02-21T08:48:23;101576.63;;;5.59;72.00
60371;BME280;48550;40.588;49.684;2023-02-21T08:50:48;101571.06;;;5.46;71.99
60371;BME280;48550;40.588;49.684;2023-02-21T08:53:16;101567.03;;;5.72;71.95
60371;BME280;48550;40.588;49.684;2023-02-21T08:55:42;101567.53;;;5.53;71.53
60371;BME280;48550;40.588;49.684;2023-02-21T08:58:09;101556.50;;;5.56;71.86
60371;BME280;48550;40.588;49.684;2023-02-21T09:00:35;101542.44;;;5.85;70.83
60371;BME280;48550;40.588;49.684;2023-02-21T09:03:01;101543.16;;;5.79;70.93
60371;BME280;48550;40.588;49.684;2023-02-21T09:05:29;101545.09;;;5.85;70.35
60371;BME280;48550;40.588;49.684;2023-02-21T09:07:57;101539.28;;;6.04;70.23
60371;BME280;48550;40.588;49.684;2023-02-21T09:10:29;101537.47;;;6.05;69.42
60371;BME280;48550;40.588;49.684;2023-02-21T09:12:54;101526.06;;;5.96;68.87
60371;BME280;48550;40.588;49.684;2023-02-21T09:15:20;101536.00;;;5.80;69.92
60371;BME280;48550;40.588;49.684;2023-02-21T09:17:46;101537.75;;;5.50;71.42
60371;BME280;48550;40.588;49.684;2023-02-21T09:20:17;101530.06;;;5.92;70.68
60371;BME280;48550;40.588;49.684;2023-02-21T09:22:45;101517.53;;;5.78;68.63
60371;BME280;48550;40.588;49.684;2023-02-21T09:25:14;101512.81;;;5.65;70.01
60371;BME280;48550;40.588;49.684;2023-02-21T09:27:40;101500.53;;;5.79;68.88
60371;BME280;48550;40.588;49.684;2023-02-21T09:30:10;101519.78;;;5.52;70.75
60371;BME280;48550;40.588;49.684;2023-02-21T09:32:37;101510.13;;;5.51;72.31
60371;BME280;48550;40.588;49.684;2023-02-21T09:35:03;101496.50;;;5.83;69.50
60371;BME280;48550;40.588;49.684;2023-02-21T09:37:30;101489.91;;;5.94;68.69
60371;BME280;48550;40.588;49.684;2023-02-21T09:39:57;101476.13;;;5.90;67.13
60371;BME280;48550;40.588;49.684;2023-02-21T09:42:28;101478.22;;;6.54;66.39
60371;BME280;48550;40.588;49.684;2023-02-21T09:44:55;101464.63;;;6.85;64.24
60371;BME280;48550;40.588;49.684;2023-02-21T09:47:27;101456.66;;;7.13;62.22
60371;BME280;48550;40.588;49.684;2023-02-21T09:50:06;101466.59;;;6.97;62.64
60371;BME280;48550;40.588;49.684;2023-02-21T09:52:36;101465.84;;;6.67;62.94
60371;BME280;48550;40.588;49.684;2023-02-21T09:55:30;101456.09;;;6.75;63.22
60371;BME280;48550;40.588;49.684;2023-02-21T09:57:56;101446.31;;;6.82;63.83
60371;BME280;48550;40.588;49.684;2023-02-21T10:03:23;101431.00;;;6.33;63.93
60371;BME280;48550;40.588;49.684;2023-02-21T10:05:48;101434.44;;;6.48;65.11
60371;BME280;48550;40.588;49.684;2023-02-21T10:14:03;101424.84;;;5.88;64.79
60371;BME280;48550;40.588;49.684;2023-02-21T10:16:40;101422.28;;;5.65;66.78
60371;BME280;48550;40.588;49.684;2023-02-21T10:19:13;101417.31;;;5.77;66.45
60371;BME280;48550;40.588;49.684;2023-02-21T10:21:43;101408.13;;;5.80;67.50
60371;BME280;48550;40.588;49.684;2023-02-21T10:24:19;101387.50;;;5.96;64.84
60371;BME280;48550;40.588;49.684;2023-02-21T10:27:11;101378.00;;;5.94;66.19
60371;BME280;48550;40.588;49.684;2023-02-21T10:29:59;101373.06;;;5.61;68.51
60371;BME280;48550;40.588;49.684;2023-02-21T10:32:27;101389.31;;;5.52;68.79
60371;BME280;48550;40.588;49.684;2023-02-21T10:34:53;101388.03;;;5.48;66.73
60371;BME280;48550;40.588;49.684;2023-02-21T10:37:39;101367.53;;;5.33;67.83
60371;BME280;48550;40.588;49.684;2023-02-21T10:42:42;101374.34;;;5.51;67.94
60371;BME280;48550;40.588;49.684;2023-02-21T10:45:11;101375.53;;;5.33;69.07
60371;BME280;48550;40.588;49.684;2023-02-21T10:47:52;101354.31;;;5.55;68.06
60371;BME280;48550;40.588;49.684;2023-02-21T10:53:35;101347.81;;;5.42;66.50
60371;BME280;48550;40.588;49.684;2023-02-21T10:56:11;101340.81;;;5.71;65.57
60371;BME280;48550;40.588;49.684;2023-02-21T10:58:45;101346.22;;;5.78;65.54
60371;BME280;48550;40.588;49.684;2023-02-21T11:01:19;101336.47;;;5.85;65.92
60371;BME280;48550;40.588;49.684;2023-02-21T11:03:52;101332.72;;;6.09;64.98
60371;BME280;48550;40.588;49.684;2023-02-21T11:06:36;101324.03;;;6.21;67.44
60371;BME280;48550;40.588;49.684;2023-02-21T11:09:29;101314.84;;;6.24;63.06
60371;BME280;48550;40.588;49.684;2023-02-21T11:17:24;101328.03;;;6.11;65.97
60371;BME280;48550;40.588;49.684;2023-02-21T11:19:53;101322.81;;;6.66;65.76
60371;BME280;48550;40.588;49.684;2023-02-21T11:22:44;101328.72;;;6.62;62.13
60371;BME280;48550;40.588;49.684;2023-02-21T11:28:31;101307.66;;;6.46;61.22
60371;BME280;48550;40.588;49.684;2023-02-21T11:31:15;101303.34;;;6.23;62.46
60371;BME280;48550;40.588;49.684;2023-02-21T11:36:35;101296.19;;;6.24;61.73
60371;BME280;48550;40.588;49.684;2023-02-21T11:41:48;101290.47;;;6.27;63.86
60371;BME280;48550;40.588;49.684;2023-02-21T11:44:38;101294.72;;;6.21;64.00
60371;BME280;48550;40.588;49.684;2023-02-21T11:47:22;101280.00;;;6.25;62.47
60371;BME280;48550;40.588;49.684;2023-02-21T11:58:52;101244.06;;;5.85;68.49
60371;BME280;48550;40.588;49.684;2023-02-21T12:01:43;101223.06;;;5.75;68.59
60371;BME280;48550;40.588;49.684;2023-02-21T12:12:05;101187.88;;;5.95;67.66
60371;BME280;48550;40.588;49.684;2023-02-21T12:14:53;101182.84;;;6.07;67.19
60371;BME280;48550;40.588;49.684;2023-02-21T12:44:14;101159.63;;;7.39;63.02
60371;BME280;48550;40.588;49.684;2023-02-21T12:50:08;101159.44;;;7.40;61.24
60371;BME280;48550;40.588;49.684;2023-02-21T12:52:51;101155.50;;;7.29;62.08
60371;BME280;48550;40.588;49.684;2023-02-21T12:55:30;101152.00;;;7.29;62.17
60371;BME280;48550;40.588;49.684;2023-02-21T12:58:22;101135.38;;;7.27;61.52
60371;BME280;48550;40.588;49.684;2023-02-21T13:00:55;101123.47;;;7.29;62.27
60371;BME280;48550;40.588;49.684;2023-02-21T13:03:51;101124.31;;;7.37;62.60
60371;BME280;48550;40.588;49.684;2023-02-21T13:11:42;101107.13;;;7.52;62.43
60371;BME280;48550;40.588;49.684;2023-02-21T13:14:15;101095.59;;;7.52;63.67
60371;BME280;48550;40.588;49.684;2023-02-21T13:16:41;101084.94;;;7.58;63.24
60371;BME280;48550;40.588;49.684;2023-02-21T13:19:10;101073.22;;;7.59;63.06
60371;BME280;48550;40.588;49.684;2023-02-21T13:24:43;101059.66;;;7.54;64.24
60371;BME280;48550;40.588;49.684;2023-02-21T13:30:34;101032.13;;;7.54;66.11
60371;BME280;48550;40.588;49.684;2023-02-21T13:33:02;101012.41;;;7.55;65.73
60371;BME280;48550;40.588;49.684;2023-02-21T13:35:46;100998.22;;;7.61;65.66
60371;BME280;48550;40.588;49.684;2023-02-21T13:38:18;100983.41;;;7.72;64.69
60371;BME280;48550;40.588;49.684;2023-02-21T13:40:50;100971.91;;;7.71;64.40
60371;BME280;48550;40.588;49.684;2023-02-21T13:43:25;100973.94;;;7.76;64.53
60371;BME280;48550;40.588;49.684;2023-02-21T13:45:53;100985.22;;;7.97;64.67
60371;BME280;48550;40.588;49.684;2023-02-21T13:48:23;100978.22;;;8.03;64.33
60371;BME280;48550;40.588;49.684;2023-02-21T13:50:52;100980.47;;;8.00;64.89
60371;BME280;48550;40.588;49.684;2023-02-21T13:53:26;100965.47;;;7.98;64.87
60371;BME280;48550;40.588;49.684;2023-02-21T13:58:36;100981.16;;;7.75;66.03
60371;BME280;48550;40.588;49.684;2023-02-21T14:01:37;100972.94;;;7.57;66.10
60371;BME280;48550;40.588;49.684;2023-02-21T14:07:07;100966.13;;;7.15;68.99
60371;BME280;48550;40.588;49.684;2023-02-21T14:09:36;100967.56;;;7.04;70.21
60371;BME280;48550;40.588;49.684;2023-02-21T14:12:04;100970.00;;;6.92;70.43
60371;BME280;48550;40.588;49.684;2023-02-21T14:14:34;100983.97;;;6.94;71.66
60371;BME280;48550;40.588;49.684;2023-02-21T14:19:51;100973.91;;;6.90;72.63
60371;BME280;48550;40.588;49.684;2023-02-21T14:22:23;100985.38;;;6.77;72.03
60371;BME280;48550;40.588;49.684;2023-02-21T14:25:02;100982.44;;;6.65;73.01
60371;BME280;48550;40.588;49.684;2023-02-21T14:32:42;100974.16;;;6.47;76.53
60371;BME280;48550;40.588;49.684;2023-02-21T14:46:06;100928.69;;;6.08;81.96
60371;BME280;48550;40.588;49.684;2023-02-21T14:55:21;100927.91;;;6.14;83.42
60371;BME280;48550;40.588;49.684;2023-02-21T14:57:37;100937.94;;;6.12;84.01
60371;BME280;48550;40.588;49.684;2023-02-21T15:08:24;100891.31;;;5.94;88.39
60371;BME280;48550;40.588;49.684;2023-02-21T15:10:53;100904.88;;;5.99;86.73
60371;BME280;48550;40.588;49.684;2023-02-21T15:13:34;100924.13;;;5.95;87.69
60371;BME280;48550;40.588;49.684;2023-02-21T15:16:03;100897.84;;;5.92;91.34
60371;BME280;48550;40.588;49.684;2023-02-21T15:18:37;100908.88;;;5.89;92.72
60371;BME280;48550;40.588;49.684;2023-02-21T15:21:22;100908.25;;;5.87;91.79
60371;BME280;48550;40.588;49.684;2023-02-21T15:24:00;100915.75;;;5.77;93.27
60371;BME280;48550;40.588;49.684;2023-02-21T15:26:31;100902.44;;;5.77;95.33
60371;BME280;48550;40.588;49.684;2023-02-21T15:31:47;100911.94;;;5.51;100.00
60371;BME280;48550;40.588;49.684;2023-02-21T15:34:42;100920.00;;;5.36;100.00
60371;BME280;48550;40.588;49.684;2023-02-21T15:37:30;100889.53;;;5.39;100.00
60371;BME280;48550;40.588;49.684;2023-02-21T15:40:01;100883.00;;;5.41;100.00
60371;BME280;48550;40.588;49.684;2023-02-21T15:42:31;100889.38;;;5.47;100.00
60371;BME280;48550;40.588;49.684;2023-02-21T15:45:00;100896.78;;;5.52;100.00
60371;BME280;48550;40.588;49.684;2023-02-21T15:47:28;100869.56;;;5.56;100.00
60371;BME280;48550;40.588;49.684;2023-02-21T15:50:04;100877.28;;;5.45;100.00
60371;BME280;48550;40.588;49.684;2023-02-21T15:52:46;100864.66;;;5.60;100.00
60371;BME280;48550;40.588;49.684;2023-02-21T15:58:01;100853.16;;;5.53;100.00